Time;durP1;ratioP1;P1;durP2;ratioP2;P2;SDS_P1;SDS_P2;PMS_P1;PMS_P2;Temp;Humidity;BMP_temperature;BMP_pressure;BME280_temperature;BME280_humidity;BME280_pressure;Samples;Min_cycle;Max_cycle;Signal;HPM_P1;HPM_P2
2023/02/11 00:00:38;;;;;;;58.95;32.28;;;1.10;99.90;;;;;;486443;244;27488;-76
2023/02/11 00:02:39;;;;;;;49.85;29.55;;;1.10;99.90;;;;;;486414;244;27391;-76
2023/02/11 00:04:40;;;;;;;63.97;33.15;;;1.10;99.90;;;;;;486361;244;28114;-76
2023/02/11 00:06:42;;;;;;;52.90;31.02;;;1.10;99.90;;;;;;486341;244;28168;-76
2023/02/11 00:08:43;;;;;;;59.33;32.75;;;1.10;99.90;;;;;;486483;244;27450;-77
2023/02/11 00:10:45;;;;;;;53.47;30.02;;;1.10;99.90;;;;;;486570;244;27449;-75
2023/02/11 00:12:45;;;;;;;51.97;30.45;;;1.20;99.90;;;;;;486541;244;27522;-76
2023/02/11 00:14:47;;;;;;;55.70;30.70;;;1.20;99.90;;;;;;486525;244;27465;-76
2023/02/11 00:16:48;;;;;;;46.28;27.30;;;1.20;99.90;;;;;;486503;244;27419;-76
2023/02/11 00:18:51;;;;;;;57.45;31.90;;;1.20;99.90;;;;;;486539;244;27529;-76
2023/02/11 00:20:50;;;;;;;52.17;29.45;;;1.20;99.90;;;;;;486512;244;27910;-75
2023/02/11 00:22:52;;;;;;;52.03;30.70;;;1.20;99.90;;;;;;486536;244;27960;-77
2023/02/11 00:24:53;;;;;;;48.55;27.15;;;1.20;99.90;;;;;;486488;244;27458;-77
2023/02/11 00:26:54;;;;;;;51.75;30.42;;;1.20;99.90;;;;;;486504;243;27414;-76
2023/02/11 00:28:56;;;;;;;46.58;28.83;;;1.20;99.90;;;;;;486560;244;27518;-76
2023/02/11 00:30:57;;;;;;;46.25;27.77;;;1.20;99.90;;;;;;486542;244;27561;-76
2023/02/11 00:32:58;;;;;;;48.05;27.70;;;1.20;99.90;;;;;;486509;244;27467;-76
2023/02/11 00:34:59;;;;;;;45.63;26.80;;;1.20;99.90;;;;;;486507;244;27516;-77
2023/02/11 00:37:00;;;;;;;44.85;26.15;;;1.20;99.90;;;;;;486502;244;28772;-75
2023/02/11 00:39:02;;;;;;;48.47;27.50;;;1.20;99.90;;;;;;486539;244;28023;-76
2023/02/11 00:41:03;;;;;;;45.80;27.67;;;1.20;99.90;;;;;;486531;244;27521;-77
2023/02/11 00:43:04;;;;;;;45.38;27.30;;;1.20;99.90;;;;;;486525;244;27411;-76
2023/02/11 00:45:06;;;;;;;50.15;28.08;;;1.30;99.90;;;;;;486506;244;27548;-76
2023/02/11 00:47:07;;;;;;;50.33;28.50;;;1.30;99.90;;;;;;486513;244;27399;-76
2023/02/11 00:49:08;;;;;;;48.80;28.33;;;1.20;99.90;;;;;;486579;244;27434;-76
2023/02/11 00:51:09;;;;;;;51.47;28.23;;;1.20;99.90;;;;;;486530;244;28010;-76
2023/02/11 00:53:11;;;;;;;44.10;26.50;;;1.20;99.90;;;;;;486489;244;28056;-76
2023/02/11 00:55:12;;;;;;;47.83;27.83;;;1.20;99.90;;;;;;486485;244;27465;-76
2023/02/11 00:57:13;;;;;;;48.30;28.10;;;1.20;99.90;;;;;;486525;244;27415;-76
2023/02/11 00:59:14;;;;;;;46.83;27.50;;;1.20;99.90;;;;;;486555;244;27409;-76
2023/02/11 01:01:16;;;;;;;50.38;28.10;;;1.20;99.90;;;;;;486557;244;27538;-76
2023/02/11 01:03:17;;;;;;;44.65;26.95;;;1.10;99.90;;;;;;486528;244;27407;-76
2023/02/11 01:05:18;;;;;;;50.88;27.17;;;1.10;99.90;;;;;;486520;244;27484;-75
2023/02/11 01:07:19;;;;;;;47.15;27.65;;;1.10;99.90;;;;;;486589;244;27983;-77
2023/02/11 01:09:21;;;;;;;48.22;27.10;;;1.10;99.90;;;;;;486568;244;27950;-76
2023/02/11 01:11:22;;;;;;;44.88;26.75;;;1.10;99.90;;;;;;486516;244;27518;-77
2023/02/11 01:13:23;;;;;;;51.50;29.23;;;1.10;99.90;;;;;;486488;242;27399;-75
2023/02/11 01:15:24;;;;;;;48.28;30.08;;;1.10;99.90;;;;;;486480;244;27521;-76
2023/02/11 01:17:26;;;;;;;52.85;30.27;;;1.20;99.90;;;;;;486545;244;27896;-76
2023/02/11 01:19:27;;;;;;;40.92;24.17;;;1.20;99.90;;;;;;486527;244;27407;-76
2023/02/11 01:21:28;;;;;;;44.67;26.35;;;1.20;99.90;;;;;;486483;244;27443;-77
2023/02/11 01:23:29;;;;;;;47.28;27.05;;;1.30;99.90;;;;;;486495;244;27903;-76
2023/02/11 01:25:31;;;;;;;48.40;29.15;;;1.30;99.90;;;;;;486476;244;27916;-76
2023/02/11 01:27:32;;;;;;;47.45;28.38;;;1.30;99.90;;;;;;486548;244;27554;-76
2023/02/11 01:29:33;;;;;;;47.72;27.80;;;1.40;99.90;;;;;;486541;244;27478;-76
2023/02/11 01:31:34;;;;;;;40.80;24.20;;;1.30;99.90;;;;;;486525;244;27466;-77
2023/02/11 01:33:36;;;;;;;47.28;27.30;;;1.40;99.90;;;;;;486498;244;27425;-76
2023/02/11 01:35:37;;;;;;;47.38;25.77;;;1.40;99.90;;;;;;486468;244;27449;-77
2023/02/11 01:37:38;;;;;;;38.72;23.75;;;1.40;99.90;;;;;;486544;244;28069;-78
2023/02/11 01:39:39;;;;;;;43.92;26.27;;;1.40;99.90;;;;;;486540;244;27865;-76
2023/02/11 01:41:41;;;;;;;40.67;25.05;;;1.40;99.90;;;;;;486514;244;27513;-76
2023/02/11 01:43:42;;;;;;;44.08;27.15;;;1.40;99.90;;;;;;486501;244;27446;-76
2023/02/11 01:45:43;;;;;;;39.90;24.23;;;1.40;99.90;;;;;;486502;244;27522;-76
2023/02/11 01:47:44;;;;;;;48.08;27.48;;;1.40;99.90;;;;;;486533;244;27795;-75
2023/02/11 01:49:46;;;;;;;46.42;28.52;;;1.40;99.90;;;;;;486517;244;27423;-77
2023/02/11 01:51:47;;;;;;;43.60;24.87;;;1.30;99.90;;;;;;486481;244;27572;-76
2023/02/11 01:58:28;;;;;;;41.67;25.58;;;1.30;99.90;;;;;;486503;244;27406;-77
2023/02/11 02:00:29;;;;;;;43.78;26.52;;;1.30;99.90;;;;;;486513;244;27942;-76
2023/02/11 02:02:31;;;;;;;48.97;28.12;;;1.30;99.90;;;;;;486478;244;28121;-76
2023/02/11 02:04:32;;;;;;;43.50;26.80;;;1.30;99.90;;;;;;486487;244;27455;-77
2023/02/11 02:06:33;;;;;;;40.72;25.50;;;1.30;99.90;;;;;;486547;244;27571;-76
2023/02/11 02:08:34;;;;;;;45.10;25.40;;;1.30;99.90;;;;;;486523;244;27402;-75
2023/02/11 02:10:36;;;;;;;48.47;27.35;;;1.30;99.90;;;;;;486494;244;27525;-77
2023/02/11 02:12:37;;;;;;;44.13;24.77;;;1.30;99.90;;;;;;486509;244;27471;-76
2023/02/11 02:14:38;;;;;;;43.00;25.12;;;1.30;99.90;;;;;;486507;244;27902;-76
2023/02/11 02:16:39;;;;;;;42.95;25.08;;;1.30;99.90;;;;;;486530;244;28050;-78
2023/02/11 02:18:41;;;;;;;43.08;26.12;;;1.30;99.90;;;;;;486500;244;27407;-77
2023/02/11 02:20:42;;;;;;;39.80;23.40;;;1.30;99.90;;;;;;486487;244;27469;-76
2023/02/11 02:22:43;;;;;;;38.28;24.50;;;1.30;99.90;;;;;;486460;242;27490;-76
2023/02/11 02:24:44;;;;;;;49.83;28.40;;;1.30;99.90;;;;;;486503;243;27402;-76
2023/02/11 02:26:46;;;;;;;46.35;26.30;;;1.30;99.90;;;;;;486510;244;27447;-77
2023/02/11 02:28:47;;;;;;;47.28;26.58;;;1.40;99.90;;;;;;486519;244;27958;-77
2023/02/11 02:30:48;;;;;;;47.78;26.05;;;1.40;99.90;;;;;;486515;244;28020;-76
2023/02/11 02:32:49;;;;;;;41.10;24.52;;;1.40;99.90;;;;;;486503;244;27394;-76
2023/02/11 02:34:51;;;;;;;52.08;28.67;;;1.40;99.90;;;;;;486544;244;27502;-77
2023/02/11 02:36:52;;;;;;;41.25;25.10;;;1.40;99.90;;;;;;486537;244;27556;-76
2023/02/11 02:38:53;;;;;;;38.17;23.87;;;1.40;99.90;;;;;;486529;244;27411;-76
2023/02/11 02:40:54;;;;;;;50.63;28.25;;;1.40;99.90;;;;;;486524;244;27469;-76
2023/02/11 02:42:56;;;;;;;46.72;26.25;;;1.40;99.90;;;;;;486505;244;27859;-76
2023/02/11 02:44:57;;;;;;;48.75;25.15;;;1.40;99.90;;;;;;486512;244;27907;-75
2023/02/11 02:46:58;;;;;;;41.03;25.73;;;1.40;99.90;;;;;;486554;244;27427;-75
2023/02/11 02:48:59;;;;;;;41.83;25.23;;;1.40;99.90;;;;;;486502;244;27403;-76
2023/02/11 02:51:01;;;;;;;42.42;25.52;;;1.40;99.90;;;;;;486490;244;27443;-75
2023/02/11 02:53:02;;;;;;;42.30;23.20;;;1.40;99.90;;;;;;486457;244;27478;-76
2023/02/11 02:55:03;;;;;;;39.60;23.65;;;1.40;99.90;;;;;;486508;244;27500;-76
2023/02/11 02:57:04;;;;;;;41.05;23.25;;;1.40;99.90;;;;;;486507;244;27449;-75
2023/02/11 02:59:06;;;;;;;41.95;24.23;;;1.40;99.90;;;;;;486492;244;27949;-75
2023/02/11 03:01:07;;;;;;;40.92;23.05;;;1.40;99.90;;;;;;486478;244;27921;-77
2023/02/11 03:03:08;;;;;;;35.10;21.70;;;1.40;99.90;;;;;;486523;244;27497;-75
2023/02/11 03:05:09;;;;;;;37.58;22.00;;;1.30;99.90;;;;;;486540;244;27423;-76
2023/02/11 03:07:11;;;;;;;38.72;23.23;;;1.30;99.90;;;;;;486504;244;27434;-76
2023/02/11 03:09:12;;;;;;;38.00;21.90;;;1.30;99.90;;;;;;486457;244;27473;-76
2023/02/11 03:11:13;;;;;;;38.53;23.67;;;1.20;99.90;;;;;;486463;244;27466;-77
2023/02/11 03:13:16;;;;;;;42.45;24.52;;;1.20;99.90;;;;;;486511;244;27446;-76
2023/02/11 03:15:16;;;;;;;40.00;22.85;;;1.20;99.90;;;;;;486503;242;27985;-76
2023/02/11 03:17:17;;;;;;;37.78;22.45;;;1.30;99.90;;;;;;486491;244;27945;-75
2023/02/11 03:19:18;;;;;;;37.95;22.75;;;1.30;99.90;;;;;;486491;244;27474;-76
2023/02/11 03:21:20;;;;;;;45.38;25.55;;;1.30;99.90;;;;;;486496;244;27449;-75
2023/02/11 03:23:21;;;;;;;38.63;22.27;;;1.30;99.90;;;;;;486518;244;27435;-77
2023/02/11 03:25:22;;;;;;;40.60;23.20;;;1.30;99.90;;;;;;486493;244;27464;-76
2023/02/11 03:27:23;;;;;;;36.65;21.52;;;1.30;99.90;;;;;;486495;244;27545;-76
2023/02/11 03:29:25;;;;;;;38.28;22.70;;;1.30;99.90;;;;;;486501;244;27820;-76
2023/02/11 03:31:26;;;;;;;36.80;21.02;;;1.30;99.90;;;;;;486524;244;27901;-76
2023/02/11 03:33:27;;;;;;;37.70;22.35;;;1.30;99.90;;;;;;486523;244;27569;-76
2023/02/11 03:35:28;;;;;;;40.92;23.50;;;1.30;99.90;;;;;;486514;244;27427;-77
2023/02/11 03:37:30;;;;;;;40.33;23.38;;;1.30;99.90;;;;;;486485;244;27452;-77
2023/02/11 03:39:31;;;;;;;34.92;22.27;;;1.30;99.90;;;;;;486529;244;27513;-76
2023/02/11 03:41:32;;;;;;;34.55;21.92;;;1.40;99.90;;;;;;486536;244;27481;-76
2023/02/11 03:43:33;;;;;;;35.17;22.67;;;1.40;99.90;;;;;;486581;244;27450;-76
2023/02/11 03:45:35;;;;;;;35.60;22.60;;;1.40;99.90;;;;;;486517;244;27874;-76
2023/02/11 03:47:36;;;;;;;36.83;21.00;;;1.40;99.90;;;;;;486501;244;27915;-77
2023/02/11 03:49:37;;;;;;;35.38;21.35;;;1.40;99.90;;;;;;486523;244;27462;-76
2023/02/11 03:51:38;;;;;;;40.10;21.35;;;1.40;99.90;;;;;;486544;244;27441;-77
2023/02/11 03:53:40;;;;;;;37.38;22.58;;;1.40;99.90;;;;;;486558;244;27506;-78
2023/02/11 03:55:41;;;;;;;41.78;23.50;;;1.40;99.90;;;;;;486512;244;27509;-76
2023/02/11 03:57:42;;;;;;;38.15;22.20;;;1.40;99.90;;;;;;486533;244;27575;-76
2023/02/11 03:59:43;;;;;;;36.67;22.48;;;1.40;99.90;;;;;;486500;244;27947;-76
2023/02/11 04:01:45;;;;;;;37.50;23.10;;;1.40;99.90;;;;;;486526;244;27939;-77
2023/02/11 04:03:46;;;;;;;35.70;22.87;;;1.40;99.90;;;;;;486547;244;27464;-77
2023/02/11 04:05:47;;;;;;;36.67;22.35;;;1.40;99.90;;;;;;486507;244;27438;-76
2023/02/11 04:07:48;;;;;;;37.47;22.17;;;1.40;99.90;;;;;;486520;244;27441;-77
2023/02/11 04:09:50;;;;;;;35.53;22.30;;;1.40;99.90;;;;;;486513;244;27482;-76
2023/02/11 04:11:51;;;;;;;40.35;22.42;;;1.40;99.90;;;;;;486562;244;27498;-77
2023/02/11 04:13:52;;;;;;;37.65;22.00;;;1.40;99.90;;;;;;486548;244;27526;-77
2023/02/11 04:15:53;;;;;;;35.55;21.75;;;1.40;99.90;;;;;;486518;242;27933;-76
2023/02/11 04:17:55;;;;;;;39.13;21.80;;;1.30;99.90;;;;;;486502;244;28028;-76
2023/02/11 04:19:56;;;;;;;38.33;22.05;;;1.30;99.90;;;;;;486558;244;27487;-75
2023/02/11 04:21:57;;;;;;;31.60;20.17;;;1.30;99.90;;;;;;486564;244;27503;-77
2023/02/11 04:23:59;;;;;;;31.30;19.77;;;1.30;99.90;;;;;;486567;244;27403;-77
2023/02/11 04:26:00;;;;;;;34.00;21.20;;;1.30;99.90;;;;;;486516;244;27429;-76
2023/02/11 04:28:01;;;;;;;29.98;18.73;;;1.30;99.90;;;;;;486426;244;27545;-76
2023/02/11 04:30:02;;;;;;;41.47;23.55;;;1.30;99.90;;;;;;486436;244;27513;-76
2023/02/11 04:32:04;;;;;;;33.15;20.52;;;1.30;99.90;;;;;;486434;244;27965;-76
2023/02/11 04:34:05;;;;;;;28.87;19.27;;;1.20;99.90;;;;;;486364;244;28045;-77
2023/02/11 04:36:06;;;;;;;33.78;19.85;;;1.20;99.90;;;;;;486327;244;27407;-75
2023/02/11 04:38:07;;;;;;;35.75;20.70;;;1.20;99.90;;;;;;486326;244;27593;-77
2023/02/11 04:40:09;;;;;;;41.25;24.25;;;1.10;99.90;;;;;;486485;244;27481;-77
2023/02/11 04:42:10;;;;;;;40.17;23.65;;;1.10;99.90;;;;;;486516;244;27387;-75
2023/02/11 04:44:11;;;;;;;38.53;21.10;;;1.00;99.90;;;;;;486535;244;27483;-76
2023/02/11 04:46:12;;;;;;;38.13;21.40;;;1.00;99.90;;;;;;486496;244;28044;-75
2023/02/11 04:48:14;;;;;;;38.58;23.40;;;1.00;99.90;;;;;;486499;244;27926;-77
2023/02/11 04:50:15;;;;;;;36.38;21.30;;;1.00;99.90;;;;;;486576;244;27513;-76
2023/02/11 04:52:16;;;;;;;39.67;23.23;;;0.90;99.90;;;;;;486531;244;27398;-75
2023/02/11 04:54:17;;;;;;;33.85;20.85;;;0.90;99.90;;;;;;486523;244;27474;-77
2023/02/11 04:56:19;;;;;;;36.70;20.20;;;0.90;99.90;;;;;;486521;244;27402;-76
2023/02/11 04:58:20;;;;;;;35.90;20.08;;;0.90;99.90;;;;;;486487;244;27435;-76
2023/02/11 05:00:21;;;;;;;32.50;19.98;;;0.80;99.90;;;;;;486580;244;27450;-77
2023/02/11 05:02:22;;;;;;;27.30;17.85;;;0.90;99.90;;;;;;486544;244;27941;-76
2023/02/11 05:04:24;;;;;;;29.85;19.12;;;0.90;99.90;;;;;;486350;244;27549;-76
2023/02/11 05:06:25;;;;;;;31.12;18.05;;;0.90;99.90;;;;;;486501;244;27387;-76
2023/02/11 05:08:26;;;;;;;34.58;19.20;;;0.90;99.90;;;;;;486504;244;27557;-76
2023/02/11 05:10:27;;;;;;;34.47;20.88;;;0.90;99.90;;;;;;486553;244;27454;-76
2023/02/11 05:12:29;;;;;;;32.30;19.48;;;0.90;99.90;;;;;;486521;244;27433;-76
2023/02/11 05:14:30;;;;;;;27.90;17.65;;;0.90;99.90;;;;;;486526;244;27450;-76
2023/02/11 05:16:31;;;;;;;36.45;20.85;;;0.90;99.90;;;;;;486482;244;27406;-76
2023/02/11 05:18:32;;;;;;;40.00;24.42;;;0.90;99.90;;;;;;486475;244;27973;-76
2023/02/11 05:20:34;;;;;;;40.63;21.90;;;0.90;99.90;;;;;;486517;240;28088;-76
2023/02/11 05:22:35;;;;;;;35.35;20.08;;;0.80;99.90;;;;;;486518;244;27399;-75
2023/02/11 05:24:36;;;;;;;34.45;20.25;;;0.80;99.90;;;;;;486521;244;27466;-76
2023/02/11 05:26:37;;;;;;;39.50;21.83;;;0.80;99.90;;;;;;486487;244;27394;-76
2023/02/11 05:28:39;;;;;;;37.13;22.45;;;0.90;99.90;;;;;;486510;244;27541;-76
2023/02/11 05:30:40;;;;;;;36.33;20.95;;;0.90;99.90;;;;;;486541;244;27405;-76
2023/02/11 05:32:41;;;;;;;30.20;19.17;;;1.00;99.90;;;;;;486549;244;27862;-77
2023/02/11 05:34:42;;;;;;;30.00;19.52;;;1.00;99.90;;;;;;486516;244;27926;-76
2023/02/11 05:36:44;;;;;;;33.58;19.27;;;1.00;99.90;;;;;;486540;244;27418;-75
2023/02/11 05:38:45;;;;;;;35.05;20.00;;;1.00;99.90;;;;;;486528;244;27435;-75
2023/02/11 05:40:46;;;;;;;33.42;20.00;;;1.10;99.90;;;;;;486573;244;27538;-76
2023/02/11 05:42:48;;;;;;;34.50;20.90;;;1.10;99.90;;;;;;486572;244;27478;-76
2023/02/11 05:44:49;;;;;;;27.73;17.65;;;1.10;99.90;;;;;;486545;244;27560;-76
2023/02/11 05:46:50;;;;;;;35.05;21.70;;;1.10;99.90;;;;;;486551;244;27477;-76
2023/02/11 05:48:51;;;;;;;34.90;20.70;;;1.10;99.90;;;;;;486532;244;27886;-76
2023/02/11 05:50:53;;;;;;;31.70;19.65;;;1.10;99.90;;;;;;486580;244;27991;-76
2023/02/11 05:52:54;;;;;;;34.00;19.95;;;1.10;99.90;;;;;;486593;244;27394;-76
2023/02/11 05:54:55;;;;;;;29.30;17.73;;;1.10;99.90;;;;;;486519;244;27525;-76
2023/02/11 05:56:56;;;;;;;29.35;17.70;;;1.10;99.90;;;;;;486518;244;27399;-75
2023/02/11 05:58:58;;;;;;;39.45;23.12;;;1.10;99.90;;;;;;486452;244;27436;-76
2023/02/11 06:00:59;;;;;;;27.98;18.33;;;1.00;99.90;;;;;;486547;244;27787;-77
2023/02/11 06:03:00;;;;;;;36.05;21.25;;;1.10;99.90;;;;;;486532;244;27415;-76
2023/02/11 06:05:01;;;;;;;31.40;19.92;;;1.10;99.90;;;;;;486484;244;27926;-77
2023/02/11 06:07:03;;;;;;;33.88;20.52;;;1.20;99.90;;;;;;486474;244;28004;-76
2023/02/11 06:09:04;;;;;;;36.75;21.55;;;1.20;99.90;;;;;;486505;244;27515;-76
2023/02/11 06:11:05;;;;;;;35.60;20.27;;;1.30;99.90;;;;;;486537;244;27449;-76
2023/02/11 06:13:06;;;;;;;33.90;19.98;;;1.30;99.90;;;;;;486514;244;27414;-75
2023/02/11 06:15:08;;;;;;;32.15;19.12;;;1.30;99.90;;;;;;486508;244;27453;-75
2023/02/11 06:17:09;;;;;;;28.40;17.58;;;1.40;99.90;;;;;;486483;244;27493;-76
2023/02/11 06:19:10;;;;;;;30.85;19.30;;;1.40;99.90;;;;;;486337;244;28201;-76
2023/02/11 06:21:11;;;;;;;26.60;17.30;;;1.40;99.90;;;;;;486473;244;28016;-76
2023/02/11 06:23:13;;;;;;;31.87;18.27;;;1.40;99.90;;;;;;486470;244;27918;-75
2023/02/11 06:25:14;;;;;;;31.50;17.65;;;1.50;99.90;;;;;;486471;244;27449;-76
2023/02/11 06:27:16;;;;;;;36.00;19.25;;;1.50;99.90;;;;;;486476;244;27454;-76
2023/02/11 06:29:16;;;;;;;30.55;17.98;;;1.50;99.90;;;;;;486504;244;27444;-76
2023/02/11 06:31:18;;;;;;;30.25;18.62;;;1.50;99.90;;;;;;486525;244;27525;-77
2023/02/11 06:33:19;;;;;;;28.50;17.67;;;1.50;99.90;;;;;;486490;244;27478;-75
2023/02/11 06:35:20;;;;;;;32.30;18.30;;;1.50;99.90;;;;;;486497;244;27902;-76
2023/02/11 06:37:21;;;;;;;29.73;18.62;;;1.60;99.90;;;;;;486463;244;28724;-76
2023/02/11 06:39:23;;;;;;;32.60;19.05;;;1.60;99.90;;;;;;486537;244;27500;-76
2023/02/11 06:41:24;;;;;;;32.08;19.17;;;1.60;99.90;;;;;;486494;244;27533;-76
2023/02/11 06:43:25;;;;;;;32.40;18.52;;;1.60;99.90;;;;;;486503;244;27391;-76
2023/02/11 06:45:26;;;;;;;29.15;18.80;;;1.60;99.90;;;;;;486475;244;27541;-76
2023/02/11 06:47:28;;;;;;;27.30;16.95;;;1.60;99.90;;;;;;486541;244;27495;-76
2023/02/11 06:49:29;;;;;;;28.02;16.45;;;1.70;99.90;;;;;;486512;244;27462;-77
2023/02/11 06:51:30;;;;;;;27.50;16.52;;;1.70;99.90;;;;;;486513;244;27939;-77
2023/02/11 06:53:32;;;;;;;28.98;17.62;;;1.70;99.90;;;;;;486490;244;27975;-76
2023/02/11 06:55:33;;;;;;;24.08;15.80;;;1.80;99.90;;;;;;486503;244;27515;-76
2023/02/11 06:57:34;;;;;;;24.55;15.25;;;1.80;99.90;;;;;;486514;244;27525;-76
2023/02/11 06:59:35;;;;;;;26.75;17.45;;;1.80;99.90;;;;;;486529;244;27409;-76
2023/02/11 07:01:37;;;;;;;28.85;15.75;;;1.80;99.90;;;;;;486486;244;27466;-76
2023/02/11 07:03:38;;;;;;;24.73;14.18;;;1.90;99.90;;;;;;486473;244;27425;-76
2023/02/11 07:05:39;;;;;;;25.48;16.00;;;1.90;99.90;;;;;;486501;244;27530;-76
2023/02/11 07:07:40;;;;;;;25.83;16.23;;;1.90;99.90;;;;;;486515;244;27922;-76
2023/02/11 07:09:42;;;;;;;29.08;18.80;;;1.90;99.90;;;;;;486498;244;27862;-75
2023/02/11 07:11:43;;;;;;;23.75;15.43;;;1.90;99.90;;;;;;486482;244;27466;-76
2023/02/11 07:13:44;;;;;;;27.52;15.55;;;1.90;99.90;;;;;;486453;244;27594;-75
2023/02/11 07:15:45;;;;;;;25.20;16.00;;;2.00;99.90;;;;;;486513;244;27450;-76
2023/02/11 07:17:47;;;;;;;27.62;17.42;;;2.00;99.90;;;;;;486472;244;27541;-77
2023/02/11 07:19:48;;;;;;;27.20;16.80;;;2.00;99.90;;;;;;486492;244;27513;-76
2023/02/11 07:21:49;;;;;;;26.95;15.80;;;2.00;99.90;;;;;;486489;244;27982;-76
2023/02/11 07:23:50;;;;;;;25.17;15.43;;;2.00;99.90;;;;;;486470;244;27854;-75
2023/02/11 07:25:52;;;;;;;26.92;17.15;;;2.10;99.90;;;;;;486506;244;27418;-76
2023/02/11 07:27:53;;;;;;;24.33;15.35;;;2.10;99.90;;;;;;486569;244;27502;-77
2023/02/11 07:29:54;;;;;;;28.58;16.95;;;2.10;99.90;;;;;;486531;244;27473;-77
2023/02/11 07:31:55;;;;;;;26.37;16.80;;;2.10;99.90;;;;;;486493;244;27435;-77
2023/02/11 07:33:57;;;;;;;26.65;15.60;;;2.20;99.90;;;;;;486498;244;27401;-76
2023/02/11 07:35:58;;;;;;;23.23;14.87;;;2.20;99.90;;;;;;486538;244;27434;-75
2023/02/11 07:37:59;;;;;;;23.10;15.25;;;2.20;99.90;;;;;;486519;244;28003;-78
2023/02/11 07:40:00;;;;;;;26.30;16.37;;;2.20;99.90;;;;;;486500;244;29020;-75
2023/02/11 07:42:02;;;;;;;24.60;15.70;;;2.20;99.90;;;;;;486452;244;27434;-76
2023/02/11 07:44:03;;;;;;;29.58;18.35;;;2.30;99.90;;;;;;486462;244;27438;-75
2023/02/11 07:46:04;;;;;;;26.52;15.95;;;2.30;99.90;;;;;;486524;244;27497;-76
2023/02/11 07:48:05;;;;;;;28.85;17.02;;;2.30;99.90;;;;;;486521;244;27569;-76
2023/02/11 07:50:07;;;;;;;28.95;16.95;;;2.30;99.90;;;;;;486499;244;27419;-76
2023/02/11 07:52:08;;;;;;;30.10;17.87;;;2.40;99.90;;;;;;486438;244;27522;-75
2023/02/11 07:54:09;;;;;;;28.65;16.83;;;2.40;99.90;;;;;;486484;244;28686;-76
2023/02/11 07:56:10;;;;;;;24.42;15.43;;;2.40;99.90;;;;;;486525;244;27967;-77
2023/02/11 07:58:12;;;;;;;33.35;15.43;;;2.40;99.90;;;;;;486473;244;27427;-77
2023/02/11 08:00:13;;;;;;;22.83;15.45;;;2.40;99.90;;;;;;486494;244;27528;-75
2023/02/11 08:02:14;;;;;;;25.73;16.65;;;2.50;99.90;;;;;;486459;244;27489;-75
2023/02/11 08:04:15;;;;;;;28.00;17.10;;;2.50;99.90;;;;;;486508;244;27508;-77
2023/02/11 08:06:17;;;;;;;23.65;15.20;;;2.50;99.90;;;;;;486526;244;27411;-77
2023/02/11 08:08:18;;;;;;;24.75;15.77;;;2.60;99.90;;;;;;486495;244;27961;-75
2023/02/11 08:10:19;;;;;;;22.67;14.95;;;2.60;99.90;;;;;;486477;244;27858;-75
2023/02/11 08:12:21;;;;;;;23.67;15.25;;;2.60;99.90;;;;;;486393;244;27558;-76
2023/02/11 08:14:23;;;;;;;28.38;16.37;;;2.70;99.90;;;;;;486481;244;27445;-77
2023/02/11 08:16:23;;;;;;;30.75;18.98;;;2.60;99.90;;;;;;486462;244;27522;-76
2023/02/11 08:18:24;;;;;;;27.05;17.75;;;2.70;99.90;;;;;;486466;244;27845;-76
2023/02/11 08:20:26;;;;;;;26.42;16.48;;;2.70;99.90;;;;;;486441;242;27410;-76
2023/02/11 08:22:27;;;;;;;25.40;16.40;;;2.70;99.90;;;;;;486442;244;27533;-76
2023/02/11 08:24:28;;;;;;;24.40;15.68;;;2.80;99.90;;;;;;486540;244;27954;-77
2023/02/11 08:26:30;;;;;;;25.45;16.73;;;2.80;99.90;;;;;;486518;244;27874;-76
2023/02/11 08:28:31;;;;;;;25.77;16.30;;;2.90;99.90;;;;;;486467;244;27441;-76
2023/02/11 08:30:32;;;;;;;23.05;14.23;;;3.00;99.90;;;;;;486474;244;27399;-76
2023/02/11 08:32:33;;;;;;;23.95;15.63;;;3.00;99.90;;;;;;486483;244;27550;-75
2023/02/11 08:34:36;;;;;;;23.75;14.90;;;3.00;99.90;;;;;;486590;244;27567;-77
2023/02/11 08:36:36;;;;;;;26.27;17.40;;;3.00;99.90;;;;;;486468;244;27499;-76
2023/02/11 08:38:37;;;;;;;23.40;15.60;;;3.10;99.90;;;;;;486474;244;27485;-76
2023/02/11 08:40:38;;;;;;;25.62;15.65;;;3.10;99.90;;;;;;486493;244;27856;-75
2023/02/11 08:42:40;;;;;;;29.10;18.20;;;3.10;99.90;;;;;;486536;244;27990;-76
2023/02/11 08:44:41;;;;;;;28.58;15.90;;;3.20;99.90;;;;;;486529;244;27433;-77
2023/02/11 08:46:42;;;;;;;21.25;14.90;;;3.20;99.90;;;;;;486482;244;27407;-77
2023/02/11 08:48:43;;;;;;;25.80;16.77;;;3.30;99.90;;;;;;486459;244;27469;-76
2023/02/11 08:50:44;;;;;;;24.17;16.25;;;3.40;99.90;;;;;;486408;244;27474;-75
2023/02/11 08:52:46;;;;;;;25.80;15.98;;;3.40;99.90;;;;;;486488;244;27444;-76
2023/02/11 08:54:47;;;;;;;26.12;16.70;;;3.40;99.90;;;;;;486482;244;28034;-77
2023/02/11 08:56:48;;;;;;;29.65;16.90;;;3.40;99.90;;;;;;486488;244;27878;-77
2023/02/11 08:58:50;;;;;;;27.62;16.80;;;3.40;99.90;;;;;;486447;244;27469;-76
2023/02/11 09:00:51;;;;;;;28.58;15.85;;;3.30;99.90;;;;;;486471;244;27395;-76
2023/02/11 09:02:52;;;;;;;25.85;15.65;;;3.30;99.90;;;;;;486557;244;27434;-76
2023/02/11 09:04:53;;;;;;;24.80;16.30;;;3.20;99.90;;;;;;486558;244;27522;-76
2023/02/11 09:06:55;;;;;;;25.17;16.10;;;3.10;99.90;;;;;;486566;244;27406;-75
2023/02/11 09:08:56;;;;;;;24.55;15.65;;;3.20;99.90;;;;;;486546;244;27469;-77
2023/02/11 09:10:57;;;;;;;26.42;15.75;;;3.10;99.90;;;;;;486562;244;27938;-75
2023/02/11 09:12:58;;;;;;;22.00;14.75;;;3.10;99.90;;;;;;486570;244;27969;-76
2023/02/11 09:15:00;;;;;;;25.27;15.40;;;3.10;99.90;;;;;;486547;244;27473;-76
2023/02/11 09:17:01;;;;;;;27.33;15.98;;;3.10;99.90;;;;;;486542;244;27391;-76
2023/02/11 09:19:02;;;;;;;27.35;17.20;;;3.10;99.90;;;;;;486501;244;27434;-77
2023/02/11 09:21:03;;;;;;;27.17;15.88;;;3.10;99.90;;;;;;486479;244;27464;-76
2023/02/11 09:23:05;;;;;;;27.25;16.87;;;3.20;99.90;;;;;;486529;244;27446;-75
2023/02/11 09:25:06;;;;;;;23.75;16.40;;;3.30;99.90;;;;;;486533;244;27944;-76
2023/02/11 09:27:07;;;;;;;29.40;16.75;;;3.40;99.90;;;;;;486543;244;27466;-76
2023/02/11 09:29:09;;;;;;;26.85;16.17;;;3.50;99.90;;;;;;486475;244;27447;-75
2023/02/11 09:31:10;;;;;;;27.95;17.90;;;3.60;99.90;;;;;;486482;244;27399;-76
2023/02/11 09:33:11;;;;;;;21.60;14.48;;;3.60;99.90;;;;;;486350;244;27411;-77
2023/02/11 09:35:12;;;;;;;27.65;16.98;;;3.70;99.90;;;;;;486528;244;27461;-77
2023/02/11 09:37:13;;;;;;;25.08;16.55;;;3.80;99.90;;;;;;486477;244;27524;-77
2023/02/11 09:39:15;;;;;;;28.17;17.58;;;3.80;99.90;;;;;;486473;244;27890;-77
2023/02/11 09:41:16;;;;;;;24.10;16.05;;;3.90;99.90;;;;;;486494;244;29042;-76
2023/02/11 09:43:17;;;;;;;24.73;15.70;;;4.00;99.90;;;;;;486563;244;27442;-76
2023/02/11 09:45:18;;;;;;;27.58;16.95;;;4.20;99.90;;;;;;486486;244;27458;-76
2023/02/11 09:47:20;;;;;;;27.20;16.52;;;4.30;99.90;;;;;;486499;244;27553;-76
2023/02/11 09:49:21;;;;;;;24.77;15.70;;;4.40;99.90;;;;;;486473;244;27439;-76
2023/02/11 09:51:22;;;;;;;27.23;17.00;;;4.40;99.90;;;;;;486538;244;27526;-77
2023/02/11 09:53:23;;;;;;;29.08;17.05;;;4.40;99.90;;;;;;486546;244;28119;-76
2023/02/11 09:55:25;;;;;;;27.08;15.60;;;4.30;99.90;;;;;;486506;244;27937;-77
2023/02/11 09:57:26;;;;;;;26.77;16.58;;;4.30;99.90;;;;;;486525;244;27394;-76
2023/02/11 09:59:27;;;;;;;25.92;16.20;;;4.40;99.90;;;;;;486461;244;27470;-77
2023/02/11 10:01:29;;;;;;;27.52;16.77;;;4.30;99.90;;;;;;486543;244;27699;-78
2023/02/11 10:03:30;;;;;;;27.83;17.15;;;4.30;99.90;;;;;;486520;244;27534;-76
2023/02/11 10:05:31;;;;;;;30.48;17.55;;;4.30;99.90;;;;;;486499;244;27926;-77
2023/02/11 10:07:32;;;;;;;33.92;18.00;;;4.30;99.90;;;;;;486487;244;27399;-76
2023/02/11 10:09:34;;;;;;;26.02;16.70;;;4.30;99.90;;;;;;486523;244;27464;-75
2023/02/11 10:11:35;;;;;;;28.52;16.92;;;4.20;99.90;;;;;;486529;244;27462;-77
2023/02/11 10:13:36;;;;;;;30.98;17.77;;;4.20;99.90;;;;;;486522;244;27533;-77
2023/02/11 10:15:37;;;;;;;28.95;18.15;;;4.30;99.90;;;;;;486488;244;27470;-77
2023/02/11 10:17:39;;;;;;;28.33;17.35;;;4.30;99.90;;;;;;486507;244;28647;-76
2023/02/11 10:19:40;;;;;;;28.45;17.77;;;4.30;99.90;;;;;;486544;244;27478;-76
2023/02/11 10:21:45;;;;;;;28.35;18.12;;;4.30;99.90;;;;;;486523;242;27430;-77
2023/02/11 10:23:42;;;;;;;28.38;18.90;;;4.40;99.90;;;;;;486479;242;27403;-76
2023/02/11 10:25:44;;;;;;;26.10;17.75;;;4.30;99.90;;;;;;486464;244;27566;-76